Time;durP1;ratioP1;P1;durP2;ratioP2;P2;SDS_P1;SDS_P2;PMS_P1;PMS_P2;Temp;Humidity;BMP_temperature;BMP_pressure;BME280_temperature;BME280_humidity;BME280_pressure;Samples;Min_cycle;Max_cycle;Signal;HPM_P1;HPM_P2
2023/05/03 00:02:56;;;;;;;12.93;4.97;;;8.80;99.90;;;;;;10467615;28;20218;-73
2023/05/03 00:07:57;;;;;;;6.70;4.50;;;8.70;99.90;;;;;;10473751;28;20256;-72
2023/05/03 00:12:59;;;;;;;8.37;5.40;;;8.70;99.90;;;;;;10476020;28;20260;-71
2023/05/03 00:17:59;;;;;;;12.13;5.63;;;8.60;99.90;;;;;;10470632;28;20273;-71
2023/05/03 00:23:01;;;;;;;11.03;6.07;;;8.60;99.90;;;;;;10458955;28;20300;-72
2023/05/03 00:28:01;;;;;;;9.57;5.20;;;8.50;99.90;;;;;;10482779;28;20789;-71
2023/05/03 00:33:02;;;;;;;11.27;5.73;;;8.40;99.90;;;;;;10469984;28;20211;-71
2023/05/03 00:38:02;;;;;;;10.13;5.00;;;8.30;99.90;;;;;;10483328;28;20224;-71
2023/05/03 00:43:03;;;;;;;10.40;5.43;;;8.30;99.90;;;;;;10479447;28;20227;-72
2023/05/03 00:48:04;;;;;;;8.53;5.37;;;8.20;99.90;;;;;;10477898;28;20223;-72
2023/05/03 00:53:05;;;;;;;13.10;5.53;;;8.20;99.90;;;;;;10483192;28;20215;-72
2023/05/03 00:58:05;;;;;;;9.80;5.50;;;8.20;99.90;;;;;;10492047;28;20222;-71
2023/05/03 01:03:06;;;;;;;14.03;6.40;;;8.10;99.90;;;;;;10472065;28;20946;-70
2023/05/03 01:08:12;;;;;;;11.50;5.80;;;8.10;99.90;;;;;;10488088;28;20242;-70
2023/05/03 01:13:49;;;;;;;14.50;6.47;;;8.00;99.90;;;;;;10472679;28;20222;-70
2023/05/03 01:18:53;;;;;;;23.43;9.17;;;8.00;99.90;;;;;;10466789;28;20302;-70
2023/05/03 01:24:03;;;;;;;13.43;6.30;;;8.00;99.90;;;;;;10473094;28;20317;-73
2023/05/03 01:29:04;;;;;;;8.90;5.53;;;8.00;99.90;;;;;;10478393;28;20285;-70
2023/05/03 01:34:13;;;;;;;10.97;6.43;;;7.90;99.90;;;;;;10472590;28;20226;-70
2023/05/03 01:39:23;;;;;;;10.67;6.30;;;7.80;99.90;;;;;;10478959;28;20216;-69
2023/05/03 01:44:24;;;;;;;11.87;6.40;;;7.70;99.90;;;;;;10463702;28;20219;-70
2023/05/03 01:49:24;;;;;;;11.43;6.40;;;7.70;99.90;;;;;;10473066;28;20207;-70
2023/05/03 01:54:25;;;;;;;12.03;6.13;;;7.60;99.90;;;;;;10463180;28;20274;-70
2023/05/03 01:59:29;;;;;;;7.30;5.30;;;7.50;99.90;;;;;;10468382;28;20219;-70
2023/05/03 02:04:29;;;;;;;10.77;6.43;;;7.50;99.90;;;;;;10482060;28;20268;-70
2023/05/03 02:09:30;;;;;;;9.10;6.10;;;7.40;99.90;;;;;;10482797;28;20207;-70
2023/05/03 02:14:31;;;;;;;10.80;6.33;;;7.40;99.90;;;;;;10476330;28;20307;-68
2023/05/03 02:19:32;;;;;;;12.60;6.17;;;7.30;99.90;;;;;;10482238;28;20917;-69
2023/05/03 02:24:35;;;;;;;8.83;5.97;;;7.30;99.90;;;;;;10462145;28;20246;-70
2023/05/03 02:29:35;;;;;;;10.10;6.03;;;7.30;99.90;;;;;;10481906;28;20212;-70
2023/05/03 02:34:38;;;;;;;11.53;5.67;;;7.20;99.90;;;;;;10467792;28;20242;-70
2023/05/03 02:39:38;;;;;;;12.50;5.77;;;7.20;99.90;;;;;;10473142;28;20266;-72
2023/05/03 02:44:39;;;;;;;13.63;6.20;;;7.10;99.90;;;;;;10463893;28;20698;-72
2023/05/03 02:49:39;;;;;;;12.30;5.80;;;7.10;99.90;;;;;;10466355;28;20234;-69
2023/05/03 02:54:40;;;;;;;12.67;5.90;;;7.00;99.90;;;;;;10481121;28;20582;-69
2023/05/03 02:59:41;;;;;;;9.87;6.47;;;7.00;99.90;;;;;;10468981;28;20220;-72
2023/05/03 03:04:41;;;;;;;10.83;6.00;;;6.90;99.90;;;;;;10470715;28;20243;-73
2023/05/03 03:09:42;;;;;;;11.83;6.07;;;6.90;99.90;;;;;;10476146;28;20345;-70
2023/05/03 03:14:44;;;;;;;7.37;5.57;;;6.80;99.90;;;;;;10469337;28;20448;-70
2023/05/03 03:19:45;;;;;;;11.23;5.67;;;6.80;99.90;;;;;;10479446;28;20242;-71
2023/05/03 03:24:45;;;;;;;12.80;6.20;;;6.70;99.90;;;;;;10468846;28;20215;-70
2023/05/03 03:29:46;;;;;;;10.93;6.03;;;6.70;99.90;;;;;;10475710;28;20211;-70
2023/05/03 03:34:47;;;;;;;12.50;6.03;;;6.60;99.90;;;;;;10471213;28;20211;-71
2023/05/03 03:39:47;;;;;;;9.23;5.63;;;6.60;99.90;;;;;;10462229;28;20215;-71
2023/05/03 03:44:48;;;;;;;14.57;6.73;;;6.60;99.90;;;;;;10478193;28;20234;-71
2023/05/03 03:49:49;;;;;;;15.43;7.57;;;6.60;99.90;;;;;;10487094;28;20272;-72
2023/05/03 03:54:50;;;;;;;9.93;6.43;;;6.60;99.90;;;;;;10473659;28;20220;-72
2023/05/03 03:59:50;;;;;;;11.83;6.07;;;6.60;99.90;;;;;;10469541;28;20307;-71
2023/05/03 04:04:51;;;;;;;9.70;5.70;;;6.50;99.90;;;;;;10455565;28;20226;-70
2023/05/03 04:09:52;;;;;;;9.87;5.80;;;6.40;99.90;;;;;;10485097;28;20216;-70
2023/05/03 04:14:53;;;;;;;11.13;5.53;;;6.30;99.90;;;;;;10477993;28;20280;-71
2023/05/03 04:19:54;;;;;;;19.17;6.07;;;6.30;99.90;;;;;;10464017;28;20224;-70
2023/05/03 04:24:55;;;;;;;14.13;6.00;;;6.40;99.90;;;;;;10479510;28;20246;-71
2023/05/03 04:29:56;;;;;;;15.70;6.37;;;6.50;99.90;;;;;;10469189;28;20221;-70
2023/05/03 04:34:57;;;;;;;14.77;7.43;;;6.60;99.90;;;;;;10479386;28;20212;-73
2023/05/03 04:39:58;;;;;;;14.10;7.30;;;6.70;99.90;;;;;;10469944;28;20223;-73
2023/05/03 04:44:59;;;;;;;9.70;5.70;;;6.90;99.90;;;;;;10468853;28;20725;-75
2023/05/03 04:50:00;;;;;;;13.67;6.30;;;6.90;99.90;;;;;;10470027;28;20219;-73
2023/05/03 04:55:02;;;;;;;9.03;5.60;;;7.00;99.90;;;;;;10466214;28;20231;-74
2023/05/03 05:00:06;;;;;;;14.27;6.23;;;7.10;99.90;;;;;;10477281;28;20365;-73
2023/05/03 05:05:08;;;;;;;7.90;5.17;;;7.20;99.90;;;;;;10455197;28;20267;-74
2023/05/03 05:10:14;;;;;;;14.53;6.00;;;7.30;99.90;;;;;;10462586;28;20187;-74
2023/05/03 05:15:15;;;;;;;12.73;6.33;;;7.50;99.90;;;;;;10484067;28;20222;-74
2023/05/03 05:20:16;;;;;;;13.97;6.57;;;7.70;99.90;;;;;;10471569;28;20193;-75
2023/05/03 05:25:19;;;;;;;13.40;7.80;;;7.90;99.90;;;;;;10454178;28;20257;-76
2023/05/03 05:30:20;;;;;;;14.43;6.03;;;8.20;99.90;;;;;;10487191;28;20194;-76
2023/05/03 05:35:20;;;;;;;11.53;5.97;;;8.90;99.90;;;;;;10484567;28;20540;-71
2023/05/03 05:40:21;;;;;;;13.50;6.47;;;8.80;99.90;;;;;;10478462;28;20233;-71
2023/05/03 05:45:22;;;;;;;9.50;4.97;;;8.90;99.90;;;;;;10474410;28;20199;-70
2023/05/03 05:50:22;;;;;;;9.87;5.00;;;9.00;99.90;;;;;;10469232;28;20186;-71
2023/05/03 05:55:26;;;;;;;9.63;4.70;;;9.30;99.90;;;;;;10469742;28;20192;-71
2023/05/03 06:00:26;;;;;;;9.03;5.07;;;9.40;99.90;;;;;;10469460;28;20226;-72
2023/05/03 06:05:27;;;;;;;7.80;4.20;;;9.50;99.90;;;;;;10483069;28;20233;-75
2023/05/03 06:10:28;;;;;;;10.20;4.13;;;11.70;99.90;;;;;;10469323;28;20340;-74
2023/05/03 06:15:28;;;;;;;6.67;3.80;;;14.70;99.90;;;;;;10476154;28;20234;-74
2023/05/03 06:20:29;;;;;;;8.27;3.60;;;16.10;93.20;;;;;;10476187;28;20225;-75
2023/05/03 06:25:31;;;;;;;10.40;4.20;;;15.80;91.80;;;;;;10482239;28;20236;-74
2023/05/03 06:30:31;;;;;;;10.83;3.97;;;16.60;90.50;;;;;;10466215;28;20730;-75
2023/05/03 06:35:32;;;;;;;5.83;3.63;;;17.10;85.80;;;;;;10465044;28;20222;-74
2023/05/03 06:40:33;;;;;;;8.93;3.77;;;17.90;81.00;;;;;;10471698;28;20227;-76
2023/05/03 06:45:34;;;;;;;6.17;3.47;;;17.50;75.80;;;;;;10495347;28;20314;-74
2023/05/03 06:50:35;;;;;;;7.13;3.43;;;18.40;73.80;;;;;;10475741;28;20758;-75
2023/05/03 06:55:36;;;;;;;7.10;3.73;;;18.70;71.20;;;;;;10474326;28;20214;-75
2023/05/03 07:00:39;;;;;;;8.83;3.90;;;18.70;68.60;;;;;;10468628;28;20572;-76
2023/05/03 07:05:40;;;;;;;12.63;3.83;;;18.80;69.00;;;;;;10482143;28;20231;-76
2023/05/03 07:10:41;;;;;;;7.30;3.90;;;18.00;70.80;;;;;;10467658;28;20223;-75
2023/05/03 07:15:42;;;;;;;7.43;3.37;;;16.70;73.70;;;;;;10471639;28;20280;-76
2023/05/03 07:20:43;;;;;;;8.67;3.60;;;17.00;75.70;;;;;;10466391;28;20299;-75
2023/05/03 07:25:44;;;;;;;8.57;3.27;;;18.10;71.00;;;;;;10472665;28;20862;-75
2023/05/03 07:30:45;;;;;;;7.50;3.23;;;19.20;67.10;;;;;;10473525;28;20254;-77
2023/05/03 07:35:48;;;;;;;7.50;3.60;;;19.90;63.70;;;;;;10469254;28;20242;-76
2023/05/03 07:40:48;;;;;;;9.37;3.47;;;20.20;60.10;;;;;;10473638;28;20237;-76
2023/05/03 07:45:51;;;;;;;6.57;3.03;;;20.40;60.30;;;;;;10469955;28;20236;-77
2023/05/03 07:50:52;;;;;;;7.97;3.10;;;21.20;59.30;;;;;;10467007;28;20234;-76
2023/05/03 07:55:54;;;;;;;6.40;3.80;;;21.70;57.40;;;;;;10469272;28;20221;-76
2023/05/03 08:00:55;;;;;;;9.57;3.30;;;22.30;56.60;;;;;;10464876;28;20229;-75
2023/05/03 08:05:55;;;;;;;6.10;3.30;;;22.70;55.00;;;;;;10470539;28;20242;-76
2023/05/03 08:10:56;;;;;;;5.90;3.43;;;23.10;53.80;;;;;;10468426;28;20227;-76
2023/05/03 08:15:57;;;;;;;6.50;3.30;;;23.60;51.40;;;;;;10466963;28;20277;-75
2023/05/03 08:20:57;;;;;;;6.43;3.50;;;24.20;50.60;;;;;;10461947;28;20316;-76
2023/05/03 08:25:59;;;;;;;6.77;3.30;;;25.50;47.70;;;;;;10472952;28;20234;-76
2023/05/03 08:31:03;;;;;;;7.67;3.90;;;24.20;48.50;;;;;;10468457;28;20230;-76
2023/05/03 08:36:04;;;;;;;10.77;3.60;;;23.70;50.60;;;;;;10472050;28;20234;-76
2023/05/03 08:41:17;;;;;;;7.83;3.67;;;23.30;51.20;;;;;;10466216;28;20216;-75
2023/05/03 08:46:18;;;;;;;7.07;3.87;;;24.10;50.20;;;;;;10471117;28;20368;-76
2023/05/03 08:51:21;;;;;;;5.63;4.00;;;24.10;49.80;;;;;;10494807;28;20697;-76
2023/05/03 08:56:29;;;;;;;6.13;3.80;;;23.90;49.80;;;;;;10478871;28;20651;-76
2023/05/03 09:01:29;;;;;;;7.73;4.47;;;24.50;49.40;;;;;;10471644;28;20727;-76
2023/05/03 09:06:33;;;;;;;6.63;4.00;;;25.00;46.90;;;;;;10476935;28;20233;-76
2023/05/03 09:11:36;;;;;;;7.10;4.23;;;26.30;45.70;;;;;;10471493;28;20249;-77
2023/05/03 09:16:39;;;;;;;5.97;4.23;;;27.30;42.40;;;;;;10478699;28;20227;-76
2023/05/03 09:21:42;;;;;;;9.27;3.57;;;27.50;42.60;;;;;;10476846;28;20226;-76
2023/05/03 09:26:44;;;;;;;8.70;3.70;;;30.00;40.80;;;;;;10472446;28;20266;-76
2023/05/03 09:32:01;;;;;;;7.30;4.00;;;30.90;37.40;;;;;;10478907;28;20219;-76
2023/05/03 09:37:02;;;;;;;7.00;3.57;;;29.60;38.90;;;;;;10478588;28;20225;-75
2023/05/03 09:42:11;;;;;;;9.77;4.10;;;30.50;36.00;;;;;;10472469;28;20220;-76
2023/05/03 09:47:15;;;;;;;8.20;3.90;;;28.00;39.60;;;;;;10469572;28;20231;-76
2023/05/03 09:52:16;;;;;;;9.80;3.20;;;30.30;37.50;;;;;;10474055;28;20302;-75
2023/05/03 09:57:18;;;;;;;5.77;3.80;;;30.90;35.10;;;;;;10476802;28;20314;-76
2023/05/03 10:02:20;;;;;;;8.97;3.80;;;29.10;38.70;;;;;;10470443;28;20228;-76
2023/05/03 10:07:24;;;;;;;6.60;3.53;;;29.00;37.30;;;;;;10474325;28;20717;-76
2023/05/03 10:12:26;;;;;;;5.37;3.63;;;29.60;38.30;;;;;;10467925;28;20228;-76
2023/05/03 10:17:32;;;;;;;7.07;3.60;;;30.70;37.20;;;;;;10469333;28;20296;-76
2023/05/03 10:23:04;;;;;;;8.23;4.40;;;29.60;37.10;;;;;;10474428;28;20264;-76
2023/05/03 10:28:07;;;;;;;5.07;3.67;;;29.30;37.70;;;;;;10482559;28;20235;-76
2023/05/03 10:33:11;;;;;;;6.00;3.57;;;32.40;34.80;;;;;;10474318;28;20223;-75
2023/05/03 10:38:16;;;;;;;6.87;3.67;;;33.40;32.40;;;;;;10471229;28;20242;-76
2023/05/03 10:43:40;;;;;;;7.23;3.50;;;32.70;33.60;;;;;;10476461;28;20223;-76
2023/05/03 10:48:41;;;;;;;5.47;3.47;;;32.70;31.90;;;;;;10464111;28;20218;-76
2023/05/03 10:53:43;;;;;;;5.83;3.20;;;31.30;33.30;;;;;;10472490;28;20675;-76
2023/05/03 10:58:47;;;;;;;9.83;3.77;;;33.10;32.60;;;;;;10470532;28;20220;-76
2023/05/03 11:03:54;;;;;;;4.33;2.63;;;32.50;31.20;;;;;;10481347;28;20255;-76
2023/05/03 11:08:55;;;;;;;10.73;3.80;;;31.10;34.70;;;;;;10470836;28;20212;-76
2023/05/03 11:13:56;;;;;;;5.40;2.90;;;31.40;34.40;;;;;;10468090;28;20223;-76
2023/05/03 11:18:58;;;;;;;9.43;3.70;;;31.70;33.30;;;;;;10470072;28;20224;-76
2023/05/03 11:24:00;;;;;;;4.93;2.90;;;32.40;32.60;;;;;;10472618;28;20304;-76
2023/05/03 11:29:01;;;;;;;5.90;3.40;;;34.30;31.10;;;;;;10468476;28;20345;-76
2023/05/03 11:34:05;;;;;;;9.50;3.93;;;33.90;29.90;;;;;;10472422;28;20774;-76
2023/05/03 11:39:10;;;;;;;6.43;3.33;;;31.50;32.30;;;;;;10468628;28;20215;-77
2023/05/03 11:44:11;;;;;;;8.43;3.87;;;31.70;32.20;;;;;;10467315;28;20691;-75
2023/05/03 11:49:17;;;;;;;6.00;3.50;;;28.80;36.50;;;;;;10464151;28;20219;-76
2023/05/03 11:54:18;;;;;;;5.90;3.50;;;26.40;39.70;;;;;;10471755;28;20226;-76
2023/05/03 11:59:18;;;;;;;4.53;3.23;;;23.70;44.70;;;;;;10465451;28;20273;-75
2023/05/03 12:04:21;;;;;;;8.17;3.70;;;22.20;47.70;;;;;;10470022;28;20710;-75
2023/05/03 12:09:25;;;;;;;6.70;3.50;;;21.50;48.30;;;;;;10472038;28;20211;-76
2023/05/03 12:14:25;;;;;;;8.57;3.50;;;21.10;50.00;;;;;;10465312;28;20224;-75
2023/05/03 12:19:29;;;;;;;7.07;3.37;;;20.90;50.10;;;;;;10469337;28;20219;-75
2023/05/03 12:24:30;;;;;;;7.13;3.27;;;20.70;50.70;;;;;;10472451;28;20246;-76
2023/05/03 12:29:31;;;;;;;6.70;2.97;;;20.50;50.00;;;;;;10484259;28;20265;-76
2023/05/03 12:34:32;;;;;;;8.70;3.77;;;20.60;51.40;;;;;;10485847;28;20222;-77
2023/05/03 12:39:32;;;;;;;7.43;3.10;;;20.20;52.40;;;;;;10484868;28;20643;-76
2023/05/03 12:44:33;;;;;;;5.63;3.20;;;19.90;52.70;;;;;;10478288;28;20223;-76
2023/05/03 12:49:33;;;;;;;12.63;2.73;;;19.60;52.50;;;;;;10493178;28;20775;-76
2023/05/03 12:54:34;;;;;;;4.10;2.67;;;19.80;52.50;;;;;;10484727;28;20312;-76
2023/05/03 12:59:36;;;;;;;5.63;2.87;;;20.00;51.60;;;;;;10492383;28;20242;-77
2023/05/03 13:04:36;;;;;;;6.23;3.60;;;19.70;51.80;;;;;;10483805;28;20694;-76
2023/05/03 13:09:37;;;;;;;6.90;2.70;;;19.50;51.70;;;;;;10477814;28;20321;-76
2023/05/03 13:14:38;;;;;;;5.43;2.80;;;19.60;51.60;;;;;;10485309;28;20226;-75
2023/05/03 13:19:40;;;;;;;4.67;2.80;;;19.80;51.40;;;;;;10483836;28;20226;-76
2023/05/03 13:24:43;;;;;;;5.73;2.27;;;19.80;50.10;;;;;;10477034;28;20322;-75
2023/05/03 13:29:44;;;;;;;4.23;3.10;;;19.20;46.60;;;;;;10484638;28;20678;-75
2023/05/03 13:34:45;;;;;;;6.63;3.00;;;19.00;49.10;;;;;;10481370;28;20215;-75
2023/05/03 13:39:46;;;;;;;4.00;2.50;;;19.10;52.60;;;;;;10482052;28;20635;-76
2023/05/03 13:44:46;;;;;;;5.77;2.80;;;19.20;51.60;;;;;;10476913;28;20218;-75
2023/05/03 13:49:47;;;;;;;3.80;2.23;;;19.10;52.50;;;;;;10476013;28;20218;-77
2023/05/03 13:54:47;;;;;;;4.33;2.20;;;19.10;50.40;;;;;;10483909;28;20209;-76
2023/05/03 13:59:49;;;;;;;5.93;2.23;;;19.10;47.70;;;;;;10471431;28;20226;-76
2023/05/03 14:04:51;;;;;;;5.17;2.20;;;19.10;49.60;;;;;;10473410;28;20226;-76
2023/05/03 14:09:52;;;;;;;5.90;2.37;;;19.30;50.50;;;;;;10470717;28;20216;-76
2023/05/03 14:14:53;;;;;;;3.10;2.07;;;19.40;49.10;;;;;;10474081;28;20246;-75
2023/05/03 14:19:53;;;;;;;3.83;2.40;;;19.40;48.40;;;;;;10472662;28;20669;-75
2023/05/03 14:24:54;;;;;;;4.07;2.20;;;19.70;49.70;;;;;;10474131;28;20224;-75
2023/05/03 14:29:55;;;;;;;14.20;6.77;;;19.60;49.10;;;;;;10470979;28;20643;-76
2023/05/03 14:34:55;;;;;;;6.47;2.50;;;19.50;50.70;;;;;;10479856;28;20223;-76
2023/05/03 14:39:56;;;;;;;7.00;2.17;;;19.30;49.30;;;;;;10472216;28;20229;-75
2023/05/03 14:44:57;;;;;;;5.23;2.20;;;19.40;48.90;;;;;;10466810;28;20219;-76
2023/05/03 14:49:58;;;;;;;2.97;2.17;;;19.40;48.10;;;;;;10476263;28;20292;-75
2023/05/03 14:54:58;;;;;;;4.60;2.13;;;19.30;49.20;;;;;;10470777;28;20753;-76
2023/05/03 15:00:00;;;;;;;2.80;1.80;;;19.50;49.70;;;;;;10469611;28;20270;-76
2023/05/03 15:05:03;;;;;;;3.57;1.90;;;19.60;49.20;;;;;;10481153;28;20227;-76
2023/05/03 15:10:04;;;;;;;7.70;3.00;;;19.40;49.50;;;;;;10470263;28;20756;-76
2023/05/03 15:15:10;;;;;;;4.13;2.30;;;19.40;51.40;;;;;;10485972;28;20596;-76
2023/05/03 15:20:14;;;;;;;5.37;2.27;;;19.30;51.60;;;;;;10467463;28;20192;-76
2023/05/03 15:25:14;;;;;;;4.93;2.60;;;19.40;52.30;;;;;;10471348;28;20214;-77
2023/05/03 15:30:16;;;;;;;4.30;1.90;;;19.50;52.70;;;;;;10474695;28;20191;-77
2023/05/03 15:35:16;;;;;;;3.43;2.00;;;19.40;50.40;;;;;;10468550;28;20217;-76
2023/05/03 15:40:19;;;;;;;6.60;2.30;;;19.50;51.40;;;;;;10479450;28;20328;-76
2023/05/03 15:45:21;;;;;;;3.30;2.03;;;19.40;51.40;;;;;;10465771;28;20216;-75
2023/05/03 15:50:22;;;;;;;2.50;2.00;;;19.40;51.80;;;;;;10472723;28;20184;-76
2023/05/03 15:55:25;;;;;;;3.57;1.87;;;19.30;51.50;;;;;;10473074;28;20184;-76
2023/05/03 16:00:26;;;;;;;4.10;2.20;;;19.30;52.00;;;;;;10463545;28;20298;-76
2023/05/03 16:05:27;;;;;;;2.50;1.90;;;19.30;53.00;;;;;;10473067;28;20234;-76
2023/05/03 16:10:28;;;;;;;3.20;1.90;;;19.10;50.30;;;;;;10465204;28;20227;-75
2023/05/03 16:15:30;;;;;;;4.27;1.73;;;19.00;50.70;;;;;;10470544;28;20229;-76
2023/05/03 16:20:30;;;;;;;6.30;2.40;;;19.00;51.20;;;;;;10471583;28;20226;-77
2023/05/03 16:25:31;;;;;;;3.33;2.10;;;19.00;52.90;;;;;;10464485;28;20234;-76
2023/05/03 16:30:32;;;;;;;1.80;1.47;;;19.00;52.20;;;;;;10472478;28;20226;-74
2023/05/03 16:35:33;;;;;;;2.90;1.60;;;18.90;51.80;;;;;;10470295;28;20284;-74
2023/05/03 16:40:33;;;;;;;3.77;1.60;;;18.90;51.30;;;;;;10470480;28;20241;-74
2023/05/03 16:45:34;;;;;;;2.13;1.83;;;18.90;51.00;;;;;;10470809;28;20227;-77
2023/05/03 16:50:36;;;;;;;3.63;1.90;;;18.80;50.80;;;;;;10479531;28;20218;-76
2023/05/03 16:55:37;;;;;;;3.03;1.60;;;18.80;51.30;;;;;;10469684;28;20226;-76
2023/05/03 17:00:37;;;;;;;5.37;1.90;;;18.80;51.50;;;;;;10462825;28;20230;-77
2023/05/03 17:05:38;;;;;;;2.97;2.10;;;18.70;52.00;;;;;;10468719;28;20699;-77
2023/05/03 17:10:38;;;;;;;4.57;2.10;;;18.60;52.10;;;;;;10469455;28;20701;-75
2023/05/03 17:15:39;;;;;;;7.63;2.00;;;18.50;52.20;;;;;;10469824;28;20227;-75
2023/05/03 17:20:40;;;;;;;4.80;1.80;;;18.50;52.20;;;;;;10478627;28;20443;-75
2023/05/03 17:25:41;;;;;;;4.10;2.00;;;18.50;53.60;;;;;;10479544;28;20724;-76
2023/05/03 17:30:42;;;;;;;5.30;1.77;;;18.40;53.90;;;;;;10476577;28;20219;-76
2023/05/03 17:35:43;;;;;;;2.00;1.67;;;18.40;53.00;;;;;;10482240;28;20218;-75
2023/05/03 17:40:44;;;;;;;4.80;2.40;;;18.30;50.80;;;;;;10471482;28;20595;-75
2023/05/03 17:45:46;;;;;;;5.23;2.20;;;18.30;52.90;;;;;;10469659;28;20240;-75
2023/05/03 17:50:56;;;;;;;3.37;1.97;;;18.20;54.10;;;;;;10475250;28;20708;-76
2023/05/03 17:55:56;;;;;;;2.77;1.60;;;18.10;52.50;;;;;;10476398;28;20327;-75
2023/05/03 18:00:57;;;;;;;2.80;1.73;;;18.00;52.70;;;;;;10474791;28;20272;-75
2023/05/03 18:05:58;;;;;;;3.23;1.90;;;17.90;52.80;;;;;;10472316;28;20236;-75
2023/05/03 18:10:58;;;;;;;4.37;1.80;;;17.80;50.70;;;;;;10472789;28;20241;-76
2023/05/03 18:15:59;;;;;;;5.13;1.67;;;17.70;51.00;;;;;;10469186;28;20256;-77
2023/05/03 18:21:02;;;;;;;4.50;1.70;;;17.50;50.80;;;;;;10471822;28;20217;-76
2023/05/03 18:26:03;;;;;;;2.93;1.90;;;17.50;51.00;;;;;;10482224;28;20223;-74
2023/05/03 18:31:06;;;;;;;2.43;1.80;;;17.30;51.30;;;;;;10468471;28;20644;-73
2023/05/03 18:36:12;;;;;;;4.70;2.03;;;17.20;51.70;;;;;;10474063;28;20261;-75
2023/05/03 18:41:14;;;;;;;2.97;1.70;;;17.00;52.70;;;;;;10476768;28;20249;-72
2023/05/03 18:46:18;;;;;;;2.97;1.43;;;16.90;52.20;;;;;;10476768;28;20235;-73
2023/05/03 18:51:19;;;;;;;4.13;1.83;;;16.70;52.60;;;;;;10472616;28;20229;-73
2023/05/03 18:56:20;;;;;;;2.97;1.70;;;16.60;52.90;;;;;;10471483;28;20239;-74
2023/05/03 19:01:20;;;;;;;5.60;1.90;;;16.50;53.60;;;;;;10480150;28;20231;-74
2023/05/03 19:06:21;;;;;;;2.63;1.70;;;16.30;53.80;;;;;;10466065;28;20230;-73
2023/05/03 19:11:22;;;;;;;3.63;1.93;;;16.20;54.10;;;;;;10472091;28;21019;-73
2023/05/03 19:16:23;;;;;;;5.30;2.00;;;16.20;54.60;;;;;;10483716;28;20222;-74
2023/05/03 19:21:24;;;;;;;3.37;1.63;;;16.10;55.00;;;;;;10489325;28;20953;-75
2023/05/03 19:26:24;;;;;;;3.07;1.67;;;15.90;55.40;;;;;;10485329;28;20229;-75
2023/05/03 19:31:25;;;;;;;6.60;2.40;;;15.90;55.90;;;;;;10478943;28;20217;-74
2023/05/03 19:36:28;;;;;;;3.87;2.40;;;15.80;56.30;;;;;;10487328;28;20270;-71
2023/05/03 19:41:29;;;;;;;5.30;2.13;;;15.70;56.90;;;;;;10473861;28;20241;-71
2023/05/03 19:46:30;;;;;;;4.93;2.20;;;15.50;57.50;;;;;;10469507;28;20328;-69
2023/05/03 19:51:32;;;;;;;3.07;1.93;;;15.40;57.90;;;;;;10476757;28;20880;-74
2023/05/03 19:56:33;;;;;;;5.20;2.00;;;15.30;58.20;;;;;;10478549;28;20850;-75
2023/05/03 20:01:33;;;;;;;2.83;1.90;;;15.20;58.60;;;;;;10480332;28;20218;-71
2023/05/03 20:06:34;;;;;;;3.23;2.23;;;15.10;59.10;;;;;;10471693;28;20261;-72
2023/05/03 20:11:34;;;;;;;3.37;1.90;;;15.00;59.50;;;;;;10479674;28;20215;-72
2023/05/03 20:16:37;;;;;;;5.80;2.20;;;14.90;59.80;;;;;;10484615;28;20231;-72
2023/05/03 20:21:38;;;;;;;9.73;2.13;;;14.80;60.10;;;;;;10484765;28;20242;-70
2023/05/03 20:26:39;;;;;;;6.03;2.20;;;14.70;60.30;;;;;;10479259;28;20227;-75
2023/05/03 20:31:40;;;;;;;4.00;2.20;;;14.60;60.50;;;;;;10479676;28;20230;-75
2023/05/03 20:36:41;;;;;;;6.07;2.03;;;14.60;60.40;;;;;;10474291;28;20321;-73
2023/05/03 20:41:41;;;;;;;6.33;2.10;;;14.50;60.40;;;;;;10474478;28;20229;-75
2023/05/03 20:46:42;;;;;;;4.70;2.40;;;14.50;60.70;;;;;;10473391;28;20230;-74
2023/05/03 20:51:42;;;;;;;2.97;2.43;;;14.40;61.00;;;;;;10473540;28;20215;-74
2023/05/03 20:56:43;;;;;;;4.37;2.30;;;14.40;61.30;;;;;;10480709;28;20230;-74
2023/05/03 21:01:43;;;;;;;4.60;2.53;;;14.30;62.10;;;;;;10478800;28;20225;-74
2023/05/03 21:06:44;;;;;;;3.87;2.30;;;14.10;62.80;;;;;;10479492;28;20233;-73
2023/05/03 21:11:45;;;;;;;3.30;2.20;;;14.00;63.80;;;;;;10479792;28;20223;-73
2023/05/03 21:16:45;;;;;;;5.30;2.47;;;13.90;64.60;;;;;;10472444;28;20227;-74
2023/05/03 21:21:46;;;;;;;4.47;2.67;;;13.70;65.20;;;;;;10477698;28;20227;-72
2023/05/03 21:26:47;;;;;;;5.57;1.83;;;13.60;65.90;;;;;;10478021;28;20231;-73
2023/05/03 21:31:47;;;;;;;4.17;2.27;;;13.60;66.20;;;;;;10470730;28;20228;-71
2023/05/03 21:36:49;;;;;;;5.03;2.60;;;13.60;66.20;;;;;;10479025;28;20635;-73
2023/05/03 21:41:50;;;;;;;5.17;2.30;;;13.60;66.30;;;;;;10476878;28;20705;-72
2023/05/03 21:46:50;;;;;;;4.03;2.10;;;13.50;65.80;;;;;;10469533;28;20262;-72
2023/05/03 21:51:51;;;;;;;8.53;2.23;;;13.50;65.60;;;;;;10472397;28;20223;-72
2023/05/03 21:56:52;;;;;;;5.07;2.20;;;13.50;65.00;;;;;;10488217;28;20223;-74
2023/05/03 22:01:52;;;;;;;2.40;1.53;;;13.50;64.80;;;;;;10475924;28;20252;-72
2023/05/03 22:06:53;;;;;;;4.20;2.00;;;13.40;65.60;;;;;;10473523;28;20690;-73
2023/05/03 22:11:54;;;;;;;2.77;1.93;;;13.30;67.20;;;;;;10478571;28;20227;-73
2023/05/03 22:16:54;;;;;;;5.13;2.30;;;13.10;67.70;;;;;;10473625;28;20276;-72
2023/05/03 22:21:55;;;;;;;7.30;2.87;;;13.00;70.30;;;;;;10468004;28;20301;-71
2023/05/03 22:26:56;;;;;;;5.60;3.40;;;12.80;72.20;;;;;;10477147;28;20238;-70
2023/05/03 22:31:57;;;;;;;6.90;3.00;;;12.70;73.20;;;;;;10481540;28;20215;-71
2023/05/03 22:36:58;;;;;;;6.33;3.30;;;12.50;74.80;;;;;;10475574;28;20212;-70
2023/05/03 22:41:58;;;;;;;7.30;3.43;;;12.40;76.10;;;;;;10478134;28;20678;-71
2023/05/03 22:46:59;;;;;;;6.27;3.50;;;12.20;76.20;;;;;;10471610;28;20604;-70
2023/05/03 22:52:00;;;;;;;8.97;3.87;;;12.10;78.60;;;;;;10474992;28;20227;-72
2023/05/03 22:57:00;;;;;;;7.33;3.70;;;12.00;78.50;;;;;;10469816;28;20300;-73
2023/05/03 23:02:01;;;;;;;3.17;2.20;;;11.90;78.90;;;;;;10481175;28;20248;-71
2023/05/03 23:07:02;;;;;;;4.30;2.27;;;11.90;77.00;;;;;;10477658;28;20227;-71
2023/05/03 23:12:02;;;;;;;4.57;2.00;;;12.00;75.60;;;;;;10472078;28;20227;-71
2023/05/03 23:17:03;;;;;;;4.27;2.13;;;12.10;74.10;;;;;;10473862;28;20224;-71
2023/05/03 23:22:04;;;;;;;3.63;2.00;;;12.20;73.80;;;;;;10465980;28;20640;-70
2023/05/03 23:27:05;;;;;;;4.93;2.13;;;12.20;73.50;;;;;;10480392;28;20235;-72
2023/05/03 23:32:05;;;;;;;2.87;1.90;;;12.20;73.60;;;;;;10476356;28;20655;-71
2023/05/03 23:37:06;;;;;;;2.53;1.90;;;12.20;74.10;;;;;;10469033;28;20219;-71
2023/05/03 23:42:06;;;;;;;3.43;2.17;;;12.10;74.40;;;;;;10469670;28;20219;-71
2023/05/03 23:47:07;;;;;;;2.90;1.97;;;12.00;74.90;;;;;;10472902;28;20315;-73
2023/05/03 23:52:08;;;;;;;5.07;2.10;;;12.00;75.20;;;;;;10467857;28;20750;-73
2023/05/03 23:57:09;;;;;;;4.20;2.27;;;11.90;75.60;;;;;;10469841;28;20215;-73
